aviador You're here:

LFOV Decoded Metar

LAVAL in FRANCE
Report Time2017-08-21 13:30:00
UTC Time2017-08-21 13:58:11
Flight Rules vfr VFR
WindVRB at 01 kt
Visibility9999 m
Phenomena:N/A
Clouds:Broken 047 Hf
Expected CloudBase > 3,600 ft AGL from Temp-Dew spread
Ceiling4,700 ft
Temp26°C (ISA +12)
Dew Point17°C (58% RH)
QNH1021 hPa
Density Alt1,654 ft
Elevation318 ft
Report Wrong Elevation
Raw Report
METAR LFOV 211330Z AUTO VRB01KT 9999 BKN047 26/17 Q1021=

Extra information for LFOV:More info

Metar Taf Metar & Taf Last 4 Metars F.Rules Stats Wind Profile Meteogram Temp Stats Airport Information Weather charts Add Link Nearby VenuesMetar ALERT Operation Metar Decoded Social comments